sensor_id;sensor_type;location;lat;lon;timestamp;P1;durP1;ratioP1;P2;durP2;ratioP2
26530;SDS011;14201;43.188;24.160;2023-04-25T05:17:41;4.40;;;1.80;;
26530;SDS011;14201;43.188;24.160;2023-04-25T05:20:07;4.03;;;1.85;;
26530;SDS011;14201;43.188;24.160;2023-04-25T05:22:36;4.10;;;1.85;;
26530;SDS011;14201;43.188;24.160;2023-04-25T05:25:02;2.53;;;1.65;;
26530;SDS011;14201;43.188;24.160;2023-04-25T05:27:28;4.30;;;1.52;;
26530;SDS011;14201;43.188;24.160;2023-04-25T05:29:54;1.77;;;1.30;;
26530;SDS011;14201;43.188;24.160;2023-04-25T05:32:19;1.60;;;1.50;;
26530;SDS011;14201;43.188;24.160;2023-04-25T05:34:45;2.53;;;1.70;;
26530;SDS011;14201;43.188;24.160;2023-04-25T05:37:11;1.98;;;1.70;;
26530;SDS011;14201;43.188;24.160;2023-04-25T05:39:36;5.78;;;1.73;;
26530;SDS011;14201;43.188;24.160;2023-04-25T05:42:02;3.25;;;2.03;;
26530;SDS011;14201;43.188;24.160;2023-04-25T05:44:30;4.10;;;2.00;;
26530;SDS011;14201;43.188;24.160;2023-04-25T05:49:21;4.07;;;1.98;;
26530;SDS011;14201;43.188;24.160;2023-04-25T05:51:47;1.60;;;1.50;;
26530;SDS011;14201;43.188;24.160;2023-04-25T05:54:13;2.17;;;1.90;;
26530;SDS011;14201;43.188;24.160;2023-04-25T05:56:38;2.80;;;1.95;;
26530;SDS011;14201;43.188;24.160;2023-04-25T05:59:04;3.75;;;1.95;;
26530;SDS011;14201;43.188;24.160;2023-04-25T06:01:30;4.18;;;2.00;;
26530;SDS011;14201;43.188;24.160;2023-04-25T10:10:02;2.63;;;1.20;;
26530;SDS011;14201;43.188;24.160;2023-04-25T12:05:23;3.00;;;1.40;;
26530;SDS011;14201;43.188;24.160;2023-04-25T12:07:50;2.08;;;1.52;;
26530;SDS011;14201;43.188;24.160;2023-04-25T12:10:16;2.47;;;1.20;;
26530;SDS011;14201;43.188;24.160;2023-04-25T12:12:44;1.50;;;1.00;;
26530;SDS011;14201;43.188;24.160;2023-04-25T16:59:58;2.47;;;1.63;;
26530;SDS011;14201;43.188;24.160;2023-04-25T17:02:24;2.88;;;1.60;;
26530;SDS011;14201;43.188;24.160;2023-04-25T17:04:49;6.03;;;1.50;;
26530;SDS011;14201;43.188;24.160;2023-04-25T17:07:15;2.55;;;1.58;;
26530;SDS011;14201;43.188;24.160;2023-04-25T17:09:42;1.88;;;1.63;;
26530;SDS011;14201;43.188;24.160;2023-04-25T17:12:08;2.85;;;1.40;;
26530;SDS011;14201;43.188;24.160;2023-04-25T17:14:33;4.10;;;1.63;;
26530;SDS011;14201;43.188;24.160;2023-04-25T17:16:59;2.38;;;1.40;;
26530;SDS011;14201;43.188;24.160;2023-04-25T17:19:25;1.98;;;1.35;;
26530;SDS011;14201;43.188;24.160;2023-04-25T17:21:52;5.25;;;1.70;;
26530;SDS011;14201;43.188;24.160;2023-04-25T17:24:18;1.80;;;1.30;;
26530;SDS011;14201;43.188;24.160;2023-04-25T17:26:45;1.95;;;1.50;;
26530;SDS011;14201;43.188;24.160;2023-04-25T17:29:11;1.70;;;1.50;;
26530;SDS011;14201;43.188;24.160;2023-04-25T17:31:37;4.20;;;1.70;;
26530;SDS011;14201;43.188;24.160;2023-04-25T17:34:03;3.85;;;1.60;;
26530;SDS011;14201;43.188;24.160;2023-04-25T17:36:29;6.95;;;2.08;;
26530;SDS011;14201;43.188;24.160;2023-04-25T17:38:55;3.45;;;2.35;;
26530;SDS011;14201;43.188;24.160;2023-04-25T17:41:20;3.28;;;1.90;;
26530;SDS011;14201;43.188;24.160;2023-04-25T17:43:47;5.75;;;1.98;;
26530;SDS011;14201;43.188;24.160;2023-04-25T17:46:13;3.72;;;2.15;;
26530;SDS011;14201;43.188;24.160;2023-04-25T17:48:38;5.55;;;2.13;;
26530;SDS011;14201;43.188;24.160;2023-04-25T17:51:04;8.27;;;2.15;;
26530;SDS011;14201;43.188;24.160;2023-04-25T17:53:31;5.85;;;2.20;;
26530;SDS011;14201;43.188;24.160;2023-04-25T17:55:57;4.75;;;2.20;;
26530;SDS011;14201;43.188;24.160;2023-04-25T17:58:23;5.47;;;2.50;;
26530;SDS011;14201;43.188;24.160;2023-04-25T18:00:49;3.00;;;2.50;;
26530;SDS011;14201;43.188;24.160;2023-04-25T18:03:14;3.42;;;2.58;;
26530;SDS011;14201;43.188;24.160;2023-04-25T18:05:40;10.32;;;2.90;;
26530;SDS011;14201;43.188;24.160;2023-04-25T18:08:06;7.50;;;3.17;;
26530;SDS011;14201;43.188;24.160;2023-04-25T18:10:32;5.65;;;3.60;;
26530;SDS011;14201;43.188;24.160;2023-04-25T18:12:58;5.20;;;3.20;;
26530;SDS011;14201;43.188;24.160;2023-04-25T18:15:24;4.18;;;3.35;;
26530;SDS011;14201;43.188;24.160;2023-04-25T18:17:50;7.10;;;3.25;;
26530;SDS011;14201;43.188;24.160;2023-04-25T18:20:16;6.97;;;3.85;;
26530;SDS011;14201;43.188;24.160;2023-04-25T18:22:43;4.85;;;3.45;;
26530;SDS011;14201;43.188;24.160;2023-04-25T18:25:10;5.18;;;3.63;;
26530;SDS011;14201;43.188;24.160;2023-04-25T18:27:37;7.97;;;3.20;;
26530;SDS011;14201;43.188;24.160;2023-04-25T18:30:05;6.70;;;3.72;;
26530;SDS011;14201;43.188;24.160;2023-04-25T18:32:33;7.63;;;3.60;;
26530;SDS011;14201;43.188;24.160;2023-04-25T18:34:59;4.80;;;3.67;;
26530;SDS011;14201;43.188;24.160;2023-04-25T18:37:25;5.38;;;3.33;;
26530;SDS011;14201;43.188;24.160;2023-04-25T18:39:52;7.47;;;3.35;;
26530;SDS011;14201;43.188;24.160;2023-04-25T18:42:18;6.47;;;2.83;;
26530;SDS011;14201;43.188;24.160;2023-04-25T18:44:44;5.38;;;2.97;;
26530;SDS011;14201;43.188;24.160;2023-04-25T18:47:10;4.57;;;2.72;;
26530;SDS011;14201;43.188;24.160;2023-04-25T18:49:37;5.72;;;2.72;;
26530;SDS011;14201;43.188;24.160;2023-04-25T18:52:04;3.30;;;2.53;;
26530;SDS011;14201;43.188;24.160;2023-04-25T18:54:32;6.32;;;2.70;;
26530;SDS011;14201;43.188;24.160;2023-04-25T18:56:58;5.03;;;2.88;;
26530;SDS011;14201;43.188;24.160;2023-04-25T18:59:25;6.72;;;3.05;;
26530;SDS011;14201;43.188;24.160;2023-04-25T19:01:51;5.97;;;2.92;;
26530;SDS011;14201;43.188;24.160;2023-04-25T19:04:17;6.82;;;3.00;;
26530;SDS011;14201;43.188;24.160;2023-04-25T19:06:43;4.57;;;3.05;;
26530;SDS011;14201;43.188;24.160;2023-04-25T19:09:10;6.68;;;3.70;;
26530;SDS011;14201;43.188;24.160;2023-04-25T19:11:37;4.35;;;3.53;;
26530;SDS011;14201;43.188;24.160;2023-04-25T19:14:03;5.80;;;3.90;;
26530;SDS011;14201;43.188;24.160;2023-04-25T19:16:29;5.47;;;4.03;;
26530;SDS011;14201;43.188;24.160;2023-04-25T19:19:01;4.80;;;3.55;;
26530;SDS011;14201;43.188;24.160;2023-04-25T19:21:27;5.00;;;3.80;;
26530;SDS011;14201;43.188;24.160;2023-04-25T19:23:52;5.43;;;3.97;;
26530;SDS011;14201;43.188;24.160;2023-04-25T19:26:18;5.95;;;4.30;;
26530;SDS011;14201;43.188;24.160;2023-04-25T19:28:44;6.07;;;4.22;;
26530;SDS011;14201;43.188;24.160;2023-04-25T19:31:10;7.60;;;3.97;;
26530;SDS011;14201;43.188;24.160;2023-04-25T19:33:37;6.25;;;4.22;;
26530;SDS011;14201;43.188;24.160;2023-04-25T19:36:02;6.45;;;3.88;;
26530;SDS011;14201;43.188;24.160;2023-04-25T19:38:28;6.68;;;4.35;;
26530;SDS011;14201;43.188;24.160;2023-04-25T19:40:54;8.18;;;4.72;;
26530;SDS011;14201;43.188;24.160;2023-04-25T19:43:20;10.95;;;5.10;;
26530;SDS011;14201;43.188;24.160;2023-04-25T19:45:45;5.53;;;4.95;;
26530;SDS011;14201;43.188;24.160;2023-04-25T19:48:11;9.68;;;4.82;;
26530;SDS011;14201;43.188;24.160;2023-04-25T19:50:38;5.30;;;4.55;;
26530;SDS011;14201;43.188;24.160;2023-04-25T19:53:04;6.47;;;4.75;;
26530;SDS011;14201;43.188;24.160;2023-04-25T19:55:30;7.03;;;4.57;;
26530;SDS011;14201;43.188;24.160;2023-04-25T19:57:56;7.15;;;4.65;;
26530;SDS011;14201;43.188;24.160;2023-04-25T20:00:21;6.55;;;4.90;;
26530;SDS011;14201;43.188;24.160;2023-04-25T20:02:47;7.20;;;5.10;;
26530;SDS011;14201;43.188;24.160;2023-04-25T20:05:13;7.90;;;4.68;;
26530;SDS011;14201;43.188;24.160;2023-04-25T20:07:41;6.32;;;5.30;;
26530;SDS011;14201;43.188;24.160;2023-04-25T20:10:07;8.95;;;5.55;;
26530;SDS011;14201;43.188;24.160;2023-04-25T20:12:34;7.10;;;5.82;;
26530;SDS011;14201;43.188;24.160;2023-04-25T20:15:07;8.23;;;6.18;;
26530;SDS011;14201;43.188;24.160;2023-04-25T20:17:34;7.68;;;6.60;;
26530;SDS011;14201;43.188;24.160;2023-04-25T20:20:00;13.30;;;6.30;;
26530;SDS011;14201;43.188;24.160;2023-04-25T20:22:25;10.60;;;6.30;;
26530;SDS011;14201;43.188;24.160;2023-04-25T20:24:52;9.98;;;6.53;;
26530;SDS011;14201;43.188;24.160;2023-04-25T20:27:18;11.75;;;7.25;;
26530;SDS011;14201;43.188;24.160;2023-04-25T20:29:43;12.55;;;7.38;;
26530;SDS011;14201;43.188;24.160;2023-04-25T20:32:09;11.57;;;8.13;;
26530;SDS011;14201;43.188;24.160;2023-04-25T20:34:36;16.00;;;8.05;;
26530;SDS011;14201;43.188;24.160;2023-04-25T20:37:01;11.82;;;7.85;;
26530;SDS011;14201;43.188;24.160;2023-04-25T20:39:27;10.90;;;8.38;;
26530;SDS011;14201;43.188;24.160;2023-04-25T20:41:53;9.18;;;7.78;;
26530;SDS011;14201;43.188;24.160;2023-04-25T20:44:19;10.40;;;8.32;;
26530;SDS011;14201;43.188;24.160;2023-04-25T20:46:47;10.63;;;8.57;;
26530;SDS011;14201;43.188;24.160;2023-04-25T20:49:13;12.65;;;8.80;;
26530;SDS011;14201;43.188;24.160;2023-04-25T20:51:39;9.52;;;8.18;;
26530;SDS011;14201;43.188;24.160;2023-04-25T20:54:05;11.52;;;7.85;;
26530;SDS011;14201;43.188;24.160;2023-04-25T20:56:31;9.88;;;7.88;;
26530;SDS011;14201;43.188;24.160;2023-04-25T20:58:56;10.52;;;7.70;;
26530;SDS011;14201;43.188;24.160;2023-04-25T21:01:22;10.13;;;8.45;;
26530;SDS011;14201;43.188;24.160;2023-04-25T21:03:51;10.07;;;7.90;;
26530;SDS011;14201;43.188;24.160;2023-04-25T21:06:17;15.00;;;8.27;;
26530;SDS011;14201;43.188;24.160;2023-04-25T21:08:43;11.93;;;7.43;;
26530;SDS011;14201;43.188;24.160;2023-04-25T21:11:09;9.10;;;8.07;;
26530;SDS011;14201;43.188;24.160;2023-04-25T21:13:35;8.38;;;6.68;;
26530;SDS011;14201;43.188;24.160;2023-04-25T21:16:01;9.10;;;7.40;;
26530;SDS011;14201;43.188;24.160;2023-04-25T21:18:27;6.13;;;5.53;;
26530;SDS011;14201;43.188;24.160;2023-04-25T21:20:56;7.55;;;5.88;;
26530;SDS011;14201;43.188;24.160;2023-04-25T21:23:21;6.15;;;5.53;;
26530;SDS011;14201;43.188;24.160;2023-04-25T21:25:47;7.75;;;6.38;;
26530;SDS011;14201;43.188;24.160;2023-04-25T21:28:15;8.60;;;5.65;;
26530;SDS011;14201;43.188;24.160;2023-04-25T21:30:41;6.47;;;5.35;;
26530;SDS011;14201;43.188;24.160;2023-04-25T21:33:06;7.20;;;5.57;;
26530;SDS011;14201;43.188;24.160;2023-04-25T21:35:32;10.90;;;5.90;;
26530;SDS011;14201;43.188;24.160;2023-04-25T21:37:58;8.35;;;6.07;;
26530;SDS011;14201;43.188;24.160;2023-04-25T21:40:23;10.38;;;5.85;;
26530;SDS011;14201;43.188;24.160;2023-04-25T21:42:49;6.88;;;5.88;;
26530;SDS011;14201;43.188;24.160;2023-04-25T21:45:17;7.35;;;6.13;;
26530;SDS011;14201;43.188;24.160;2023-04-25T21:47:44;6.78;;;5.22;;
26530;SDS011;14201;43.188;24.160;2023-04-25T21:50:11;6.25;;;4.90;;
26530;SDS011;14201;43.188;24.160;2023-04-25T21:52:37;9.95;;;4.72;;
26530;SDS011;14201;43.188;24.160;2023-04-25T21:55:03;6.13;;;4.30;;
26530;SDS011;14201;43.188;24.160;2023-04-25T21:57:28;4.97;;;4.05;;
26530;SDS011;14201;43.188;24.160;2023-04-25T21:59:54;7.05;;;4.90;;
26530;SDS011;14201;43.188;24.160;2023-04-25T22:02:20;9.80;;;5.25;;
26530;SDS011;14201;43.188;24.160;2023-04-25T22:04:46;8.68;;;5.93;;
26530;SDS011;14201;43.188;24.160;2023-04-25T22:07:12;6.10;;;4.75;;
26530;SDS011;14201;43.188;24.160;2023-04-25T22:09:38;8.65;;;5.53;;
26530;SDS011;14201;43.188;24.160;2023-04-25T22:12:04;8.68;;;5.55;;
26530;SDS011;14201;43.188;24.160;2023-04-25T22:14:30;6.63;;;5.05;;
26530;SDS011;14201;43.188;24.160;2023-04-25T22:16:56;6.88;;;5.82;;
26530;SDS011;14201;43.188;24.160;2023-04-25T22:19:22;8.27;;;6.18;;
26530;SDS011;14201;43.188;24.160;2023-04-25T22:21:48;7.60;;;5.47;;
